Time,TemperatureF,DewpointF,PressureIn,WindDirection,WindDirectionDegrees,WindSpeedMPH,WindSpeedGustMPH,Humidity,HourlyPrecipIn,Conditions,Clouds,dailyrainin,SoftwareType,DateUTC
2013-02-26 00:00:00,38.5,19.0,29.97,NNE,22,5.6,5.6,45,0.00,,OVC024,0.00,VWS V14.01,2013-02-26 05:00:00,
2013-02-26 00:01:00,38.5,19.0,29.97,ENE,68,7.4,7.4,45,0.00,,OVC024,0.00,VWS V14.01,2013-02-26 05:01:00,
2013-02-26 00:06:00,38.5,19.0,29.94,NE,45,5.8,5.8,45,0.00,,OVC024,0.00,VWS V14.01,2013-02-26 05:06:00,
2013-02-26 00:11:00,38.5,19.0,29.94,NE,45,5.6,5.6,45,0.00,,OVC024,0.00,VWS V14.01,2013-02-26 05:11:00,
2013-02-26 00:16:00,38.5,19.0,29.94,NNE,22,6.3,6.3,45,0.00,,OVC024,0.00,VWS V14.01,2013-02-26 05:16:00,
2013-02-26 00:21:00,38.5,19.0,29.97,ENE,68,6.5,6.5,45,0.00,,OVC024,0.00,VWS V14.01,2013-02-26 05:21:00,
2013-02-26 00:26:00,38.5,19.0,29.97,NE,45,7.8,7.8,45,0.00,,OVC024,0.00,VWS V14.01,2013-02-26 05:26:00,
2013-02-26 00:31:00,38.5,19.0,29.97,ENE,68,8.1,8.1,45,0.00,,OVC024,0.00,VWS V14.01,2013-02-26 05:31:00,
2013-02-26 00:36:00,38.5,19.0,29.97,NE,45,5.4,5.4,45,0.00,,OVC022,0.00,VWS V14.01,2013-02-26 05:36:00,
2013-02-26 00:41:00,38.5,19.0,29.97,NNE,22,8.5,8.5,45,0.00,,OVC022,0.00,VWS V14.01,2013-02-26 05:41:00,
2013-02-26 00:46:00,38.5,19.0,29.97,NE,45,7.8,7.8,45,0.00,,OVC022,0.00,VWS V14.01,2013-02-26 05:46:00,
2013-02-26 00:51:00,38.5,19.0,29.97,ENE,68,6.7,6.7,45,0.00,,OVC036,0.00,VWS V14.01,2013-02-26 05:51:00,
2013-02-26 00:56:00,38.5,19.0,29.97,ENE,68,11.0,11.0,45,0.00,,OVC036,0.00,VWS V14.01,2013-02-26 05:56:00,
2013-02-26 01:01:00,38.5,19.0,29.97,ENE,68,9.6,9.6,45,0.00,,OVC036,0.00,VWS V14.01,2013-02-26 06:01:00,
2013-02-26 01:06:00,38.5,19.0,29.94,NE,45,7.2,7.2,45,0.00,,OVC036,0.00,VWS V14.01,2013-02-26 06:06:00,
2013-02-26 01:11:00,38.5,19.0,29.94,NNE,22,4.0,4.0,45,0.00,,OVC036,0.00,VWS V14.01,2013-02-26 06:11:00,
2013-02-26 01:16:00,38.5,19.0,29.94,NNE,22,6.3,6.3,45,0.00,,OVC036,0.00,VWS V14.01,2013-02-26 06:16:00,
2013-02-26 01:21:00,38.5,19.0,29.94,NE,45,7.8,7.8,45,0.00,,OVC036,0.00,VWS V14.01,2013-02-26 06:21:00,
2013-02-26 01:26:00,38.5,19.0,29.94,NNE,22,5.8,5.8,45,0.00,,OVC036,0.00,VWS V14.01,2013-02-26 06:26:00,
2013-02-26 01:32:00,38.5,19.0,29.94,NNE,22,6.5,6.5,45,0.00,,OVC036,0.00,VWS V14.01,2013-02-26 06:32:00,
2013-02-26 01:37:00,38.5,19.0,29.94,NNE,22,6.0,6.0,45,0.00,,OVC028,0.00,VWS V14.01,2013-02-26 06:37:00,
2013-02-26 01:42:00,38.5,19.0,29.94,NE,45,8.7,8.7,45,0.00,,OVC028,0.00,VWS V14.01,2013-02-26 06:42:00,
2013-02-26 01:47:00,38.5,19.0,29.94,NE,45,6.5,6.5,45,0.00,,OVC028,0.00,VWS V14.01,2013-02-26 06:47:00,
2013-02-26 01:52:00,38.5,19.0,29.94,ENE,68,7.6,7.6,45,0.00,,OVC028,0.00,VWS V14.01,2013-02-26 06:52:00,
2013-02-26 01:57:00,38.5,19.0,29.94,ENE,68,6.0,6.0,45,0.00,,OVC028,0.00,VWS V14.01,2013-02-26 06:57:00,
2013-02-26 02:02:00,38.3,18.8,29.94,ENE,68,10.1,10.1,45,0.00,,OVC028,0.00,VWS V14.01,2013-02-26 07:02:00,
2013-02-26 02:07:00,38.1,18.7,29.91,ENE,68,8.5,8.5,45,0.00,,OVC028,0.00,VWS V14.01,2013-02-26 07:07:00,
2013-02-26 02:12:00,37.9,18.5,29.91,East,90,7.4,7.4,45,0.00,,OVC028,0.00,VWS V14.01,2013-02-26 07:12:00,
2013-02-26 02:17:00,37.6,18.2,29.91,NE,45,8.1,8.1,45,0.00,,OVC028,0.00,VWS V14.01,2013-02-26 07:17:00,
2013-02-26 02:22:00,37.2,18.4,29.91,NNE,22,7.6,7.6,46,0.00,,OVC028,0.00,VWS V14.01,2013-02-26 07:22:00,
2013-02-26 02:27:00,36.9,20.9,29.91,ENE,68,7.8,7.8,52,0.00,,OVC028,0.00,VWS V14.01,2013-02-26 07:27:00,
2013-02-26 02:32:00,36.7,26.0,29.91,NE,45,8.1,8.1,65,0.00,,OVC028,0.00,VWS V14.01,2013-02-26 07:32:00,
2013-02-26 02:37:00,36.5,27.0,29.91,ENE,68,9.8,9.8,68,0.00,,OVC023,0.00,VWS V14.01,2013-02-26 07:37:00,
2013-02-26 02:42:00,36.3,27.1,29.91,ENE,68,8.7,8.7,69,0.00,,OVC023,0.00,VWS V14.01,2013-02-26 07:42:00,
2013-02-26 02:47:00,36.3,28.2,29.91,ENE,68,10.3,10.3,72,0.00,,OVC023,0.00,VWS V14.01,2013-02-26 07:47:00,
2013-02-26 02:52:00,36.1,28.7,29.91,ENE,68,6.9,6.9,74,0.00,,OVC023,0.00,VWS V14.01,2013-02-26 07:52:00,
2013-02-26 02:57:00,36.1,29.0,29.91,NE,45,7.6,7.6,75,0.00,,OVC023,0.00,VWS V14.01,2013-02-26 07:57:00,
2013-02-26 03:02:00,36.0,28.8,29.91,ENE,68,6.0,6.0,75,0.00,,OVC023,0.00,VWS V14.01,2013-02-26 08:02:00,
2013-02-26 03:07:00,36.0,29.1,29.88,ENE,68,7.4,7.4,76,0.00,,OVC023,0.00,VWS V14.01,2013-02-26 08:07:00,
2013-02-26 03:12:00,35.8,29.0,29.88,NE,45,6.0,6.0,76,0.00,,OVC023,0.00,VWS V14.01,2013-02-26 08:12:00,
2013-02-26 03:17:00,35.6,29.4,29.88,NE,45,7.8,7.8,78,0.00,,OVC023,0.00,VWS V14.01,2013-02-26 08:17:00,
2013-02-26 03:22:00,35.4,29.9,29.82,ENE,68,6.5,6.5,80,0.00,,OVC023,0.00,VWS V14.01,2013-02-26 08:22:00,
2013-02-26 03:27:00,35.4,30.2,29.82,NE,45,6.5,6.5,81,0.00,,OVC023,0.00,VWS V14.01,2013-02-26 08:27:00,
2013-02-26 03:32:00,35.2,30.6,29.82,NE,45,8.5,8.5,83,0.00,,OVC023,0.00,VWS V14.01,2013-02-26 08:32:00,
2013-02-26 03:38:00,35.2,31.2,29.85,NE,45,6.3,6.3,85,0.00,,-RA,0.00,VWS V14.01,2013-02-26 08:38:00,
2013-02-26 03:43:00,35.1,31.3,29.85,NNE,22,7.6,7.6,86,0.00,,-RA,0.00,VWS V14.01,2013-02-26 08:43:00,
2013-02-26 03:48:00,35.1,31.6,29.85,ENE,68,5.8,5.8,87,0.00,,-RA,0.00,VWS V14.01,2013-02-26 08:48:00,
2013-02-26 03:53:00,35.1,31.9,29.85,ENE,68,8.1,8.1,88,0.00,,-RA,0.00,VWS V14.01,2013-02-26 08:53:00,
2013-02-26 03:58:00,35.1,32.2,29.85,NE,45,7.8,7.8,89,0.00,,-RA,0.00,VWS V14.01,2013-02-26 08:58:00,
2013-02-26 04:03:00,35.2,32.9,29.85,NE,45,11.0,11.0,91,0.00,,-RA,0.00,VWS V14.01,2013-02-26 09:03:00,
2013-02-26 04:08:00,35.1,33.0,29.85,NNE,22,7.2,7.2,92,0.00,,-RA,0.00,VWS V14.01,2013-02-26 09:08:00,
2013-02-26 04:13:00,35.1,33.2,29.85,NE,45,8.7,8.7,93,0.00,,-RA,0.00,VWS V14.01,2013-02-26 09:13:00,
2013-02-26 04:18:00,35.1,33.8,29.85,ENE,68,8.5,8.5,95,0.00,,-RA,0.00,VWS V14.01,2013-02-26 09:18:00,
2013-02-26 04:23:00,34.9,33.9,29.85,NNE,22,6.5,6.5,96,0.04,,-RA,0.04,VWS V14.01,2013-02-26 09:23:00,
2013-02-26 04:28:00,34.9,34.1,29.85,NE,45,9.8,9.8,97,0.04,,-RA,0.04,VWS V14.01,2013-02-26 09:28:00,
2013-02-26 04:33:00,34.9,34.4,29.85,NE,45,5.8,5.8,98,0.04,,-RA,0.04,VWS V14.01,2013-02-26 09:33:00,
2013-02-26 04:38:00,34.9,34.6,29.82,ENE,68,11.4,11.4,99,0.04,,-RA,0.04,VWS V14.01,2013-02-26 09:38:00,
2013-02-26 04:43:00,34.9,34.9,29.82,NE,45,5.8,5.8,100,0.04,,-RA,0.04,VWS V14.01,2013-02-26 09:43:00,
2013-02-26 04:48:00,34.9,34.9,29.82,NE,45,6.5,6.5,100,0.08,,-RA,0.08,VWS V14.01,2013-02-26 09:48:00,
2013-02-26 04:53:00,34.9,34.9,29.82,ENE,68,10.5,10.5,100,0.08,, +RA,0.08,VWS V14.01,2013-02-26 09:53:00,
2013-02-26 04:58:00,35.1,35.1,29.82,NE,45,7.4,7.4,100,0.08,, +RA,0.08,VWS V14.01,2013-02-26 09:58:00,
2013-02-26 05:03:00,34.9,34.9,29.82,NNE,22,6.3,6.3,100,0.08,, +RA,0.08,VWS V14.01,2013-02-26 10:03:00,
2013-02-26 05:08:00,34.9,34.9,29.82,NNE,22,5.8,5.8,100,0.08,, +RA,0.08,VWS V14.01,2013-02-26 10:08:00,
2013-02-26 05:13:00,34.9,34.9,29.82,ENE,68,5.6,5.6,100,0.08,, +RA,0.08,VWS V14.01,2013-02-26 10:13:00,
2013-02-26 05:18:00,35.1,35.1,29.82,ENE,68,10.1,10.1,100,0.08,, +RA,0.08,VWS V14.01,2013-02-26 10:18:00,
2013-02-26 05:23:00,35.1,35.1,29.85,ENE,68,2.9,2.9,100,0.04,, +RA,0.08,VWS V14.01,2013-02-26 10:23:00,
2013-02-26 05:28:00,35.1,35.1,29.85,ENE,68,5.4,5.4,100,0.08,, +RA,0.12,VWS V14.01,2013-02-26 10:28:00,
2013-02-26 05:33:00,35.2,35.2,29.85,ENE,68,7.4,7.4,100,0.08,, +RA,0.12,VWS V14.01,2013-02-26 10:33:00,
2013-02-26 05:38:00,35.2,35.2,29.85,ENE,68,5.4,5.4,100,0.08,,RA,0.12,VWS V14.01,2013-02-26 10:38:00,
2013-02-26 05:43:00,35.1,35.1,29.85,ENE,68,6.3,6.3,100,0.08,,RA,0.12,VWS V14.01,2013-02-26 10:43:00,
2013-02-26 05:48:00,35.1,35.1,29.85,NE,45,5.8,5.8,100,0.04,,RA,0.12,VWS V14.01,2013-02-26 10:48:00,
2013-02-26 05:53:00,35.1,35.1,29.85,NNE,22,6.0,6.0,100,0.04,,RA,0.12,VWS V14.01,2013-02-26 10:53:00,
2013-02-26 05:58:00,35.1,35.1,29.85,NE,45,8.1,8.1,100,0.04,,RA,0.12,VWS V14.01,2013-02-26 10:58:00,
2013-02-26 06:03:00,35.1,35.1,29.85,NE,45,7.6,7.6,100,0.08,,RA,0.16,VWS V14.01,2013-02-26 11:03:00,
2013-02-26 06:08:00,35.2,35.2,29.85,NNE,22,12.5,12.5,100,0.08,,RA,0.16,VWS V14.01,2013-02-26 11:08:00,
2013-02-26 06:13:00,35.2,35.2,29.85,NNE,22,6.5,6.5,100,0.08,,RA,0.16,VWS V14.01,2013-02-26 11:13:00,
2013-02-26 06:18:00,35.2,35.2,29.85,NE,45,12.3,12.3,100,0.08,,RA,0.16,VWS V14.01,2013-02-26 11:18:00,
2013-02-26 06:23:00,35.2,35.2,29.82,NE,45,8.1,8.1,100,0.08,,RA,0.16,VWS V14.01,2013-02-26 11:23:00,
2013-02-26 06:28:00,35.2,35.2,29.82,NNE,22,8.5,8.5,100,0.08,,RA,0.16,VWS V14.01,2013-02-26 11:28:00,
2013-02-26 06:33:00,35.2,35.2,29.82,NNE,22,10.1,10.1,100,0.09,,RA,0.21,VWS V14.01,2013-02-26 11:33:00,
2013-02-26 06:38:00,35.2,35.2,29.79,NE,45,11.2,11.2,100,0.09,,RA,0.21,VWS V14.01,2013-02-26 11:38:00,
2013-02-26 06:44:00,35.4,35.4,29.79,NE,45,7.8,7.8,100,0.09,,RA,0.21,VWS V14.01,2013-02-26 11:44:00,
2013-02-26 06:49:00,35.4,35.4,29.79,NNE,22,10.5,10.5,100,0.09,,RA,0.21,VWS V14.01,2013-02-26 11:49:00,
2013-02-26 06:54:00,35.4,35.4,29.79,NNE,22,4.9,4.9,100,0.09,,RA,0.21,VWS V14.01,2013-02-26 11:54:00,
2013-02-26 06:59:00,35.4,35.4,29.79,NNE,22,10.3,10.3,100,0.09,,RA,0.21,VWS V14.01,2013-02-26 11:59:00,
2013-02-26 07:04:00,35.6,35.6,29.79,NE,45,11.0,11.0,100,0.05,,RA,0.21,VWS V14.01,2013-02-26 12:04:00,
2013-02-26 07:09:00,35.6,35.6,29.79,NNE,22,10.7,10.7,100,0.05,,RA,0.21,VWS V14.01,2013-02-26 12:09:00,
2013-02-26 07:14:00,35.6,35.6,29.79,NNE,22,7.8,7.8,100,0.05,,RA,0.21,VWS V14.01,2013-02-26 12:14:00,
2013-02-26 07:19:00,35.8,35.8,29.79,NE,45,10.5,10.5,100,0.05,,RA,0.21,VWS V14.01,2013-02-26 12:19:00,
2013-02-26 07:24:00,35.8,35.8,29.79,NE,45,2.9,2.9,100,0.09,,RA,0.25,VWS V14.01,2013-02-26 12:24:00,
2013-02-26 07:29:00,35.8,35.8,29.79,NE,45,15.2,15.2,100,0.09,,RA,0.25,VWS V14.01,2013-02-26 12:29:00,
2013-02-26 07:34:00,35.8,35.8,29.79,NE,45,8.1,8.1,100,0.04,,RA,0.25,VWS V14.01,2013-02-26 12:34:00,
2013-02-26 07:39:00,35.8,35.8,29.79,NE,45,5.4,5.4,100,0.04,,RA,0.25,VWS V14.01,2013-02-26 12:39:00,
2013-02-26 07:44:00,36.0,36.0,29.79,NE,45,12.3,12.3,100,0.04,,RA,0.25,VWS V14.01,2013-02-26 12:44:00,
2013-02-26 07:49:00,36.0,36.0,29.79,NE,45,10.3,10.3,100,0.08,,RA,0.29,VWS V14.01,2013-02-26 12:49:00,
2013-02-26 07:54:00,36.1,36.1,29.79,ENE,68,8.5,8.5,100,0.08,,RA,0.29,VWS V14.01,2013-02-26 12:54:00,
2013-02-26 07:59:00,36.3,36.3,29.79,ENE,68,7.8,7.8,100,0.08,,RA,0.29,VWS V14.01,2013-02-26 12:59:00,
2013-02-26 08:04:00,36.3,36.3,29.79,NNE,22,7.2,7.2,100,0.12,,RA,0.33,VWS V14.01,2013-02-26 13:04:00,
2013-02-26 08:09:00,36.5,36.5,29.76,NNE,22,8.1,8.1,100,0.12,,RA,0.33,VWS V14.01,2013-02-26 13:09:00,
2013-02-26 08:14:00,36.7,36.7,29.76,NE,45,8.7,8.7,100,0.12,,RA,0.33,VWS V14.01,2013-02-26 13:14:00,
2013-02-26 08:19:00,36.7,36.7,29.76,ENE,68,4.3,4.3,100,0.12,,RA,0.33,VWS V14.01,2013-02-26 13:19:00,
2013-02-26 08:24:00,36.7,36.7,29.74,NE,45,6.0,6.0,100,0.08,,RA,0.33,VWS V14.01,2013-02-26 13:24:00,
2013-02-26 08:30:00,36.9,36.9,29.74,NE,45,13.2,13.2,100,0.12,,RA,0.37,VWS V14.01,2013-02-26 13:30:00,
2013-02-26 08:35:00,36.9,36.9,29.74,NE,45,7.6,7.6,100,0.12,,RA,0.37,VWS V14.01,2013-02-26 13:35:00,
2013-02-26 08:40:00,37.0,37.0,29.74,ENE,68,6.0,6.0,100,0.12,,RA,0.37,VWS V14.01,2013-02-26 13:40:00,
2013-02-26 08:45:00,37.2,37.2,29.74,ENE,68,5.6,5.6,100,0.16,,RA,0.41,VWS V14.01,2013-02-26 13:45:00,
2013-02-26 08:50:00,37.2,37.2,29.74,ENE,68,10.5,10.5,100,0.12,,RA,0.41,VWS V14.01,2013-02-26 13:50:00,
2013-02-26 08:55:00,37.4,37.4,29.74,NNE,22,4.9,4.9,100,0.12,,RA,0.41,VWS V14.01,2013-02-26 13:55:00,
2013-02-26 09:00:00,37.6,37.6,29.74,East,90,12.8,12.8,100,0.12,,RA,0.41,VWS V14.01,2013-02-26 14:00:00,
2013-02-26 09:05:00,37.8,37.8,29.74,East,90,10.7,10.7,100,0.13,,RA,0.46,VWS V14.01,2013-02-26 14:05:00,
2013-02-26 09:10:00,37.9,37.9,29.74,ENE,68,8.7,8.7,100,0.13,,RA,0.46,VWS V14.01,2013-02-26 14:10:00,
2013-02-26 09:15:00,38.3,38.3,29.74,ENE,68,8.1,8.1,100,0.13,,RA,0.46,VWS V14.01,2013-02-26 14:15:00,
2013-02-26 09:20:00,38.7,38.7,29.74,NE,45,10.3,10.3,100,0.13,,RA,0.46,VWS V14.01,2013-02-26 14:20:00,
2013-02-26 09:25:00,38.8,38.8,29.74,ENE,68,8.1,8.1,100,0.13,,RA,0.46,VWS V14.01,2013-02-26 14:25:00,
2013-02-26 09:30:00,38.8,38.8,29.74,NE,45,6.0,6.0,100,0.09,,RA,0.46,VWS V14.01,2013-02-26 14:30:00,
2013-02-26 09:35:00,39.0,39.0,29.74,ENE,68,10.3,10.3,100,0.12,,RA,0.49,VWS V14.01,2013-02-26 14:35:00,
2013-02-26 09:40:00,39.2,39.2,29.74,NE,45,6.5,6.5,100,0.12,,-RA,0.49,VWS V14.01,2013-02-26 14:40:00,
2013-02-26 09:45:00,39.4,39.4,29.74,NE,45,4.3,4.3,100,0.08,,-RA,0.49,VWS V14.01,2013-02-26 14:45:00,
2013-02-26 09:50:00,39.4,39.4,29.71,East,90,4.5,4.5,100,0.13,,-RA,0.54,VWS V14.01,2013-02-26 14:50:00,
2013-02-26 09:55:00,39.7,39.7,29.71,ENE,68,5.8,5.8,100,0.13,,-RA,0.54,VWS V14.01,2013-02-26 14:55:00,
2013-02-26 10:00:00,39.9,39.9,29.71,ENE,68,7.8,7.8,100,0.13,,-RA,0.54,VWS V14.01,2013-02-26 15:00:00,
2013-02-26 10:05:00,40.3,40.3,29.71,East,90,2.0,2.0,100,0.08,,-RA,0.54,VWS V14.01,2013-02-26 15:05:00,
2013-02-26 10:10:00,40.5,40.5,29.71,ENE,68,4.7,4.7,100,0.08,,-RA,0.54,VWS V14.01,2013-02-26 15:10:00,
2013-02-26 10:15:00,40.6,40.6,29.71,ESE,112,4.7,4.7,100,0.08,,-RA,0.54,VWS V14.01,2013-02-26 15:15:00,
2013-02-26 10:21:00,41.0,41.0,29.71,NE,45,5.8,5.8,100,0.08,,-RA,0.54,VWS V14.01,2013-02-26 15:21:00,
2013-02-26 10:26:00,41.2,41.2,29.71,NE,45,4.9,4.9,100,0.12,,-RA,0.58,VWS V14.01,2013-02-26 15:26:00,
2013-02-26 10:31:00,41.4,41.4,29.71,NE,45,4.9,4.9,100,0.12,,-RA,0.58,VWS V14.01,2013-02-26 15:31:00,
2013-02-26 10:36:00,41.7,41.7,29.68,East,90,8.1,8.1,100,0.09,,-RA,0.58,VWS V14.01,2013-02-26 15:36:00,
2013-02-26 10:41:00,41.9,41.9,29.68,ENE,68,4.9,4.9,100,0.09,,-RA,0.58,VWS V14.01,2013-02-26 15:41:00,
2013-02-26 10:46:00,42.1,42.1,29.68,ENE,68,6.3,6.3,100,0.09,,-RA,0.58,VWS V14.01,2013-02-26 15:46:00,
2013-02-26 10:51:00,42.3,42.3,29.65,NE,45,4.0,4.0,100,0.04,,-RA,0.58,VWS V14.01,2013-02-26 15:51:00,
2013-02-26 10:56:00,42.4,42.4,29.65,ENE,68,5.8,5.8,100,0.04,,-RA,0.58,VWS V14.01,2013-02-26 15:56:00,
2013-02-26 11:01:00,42.8,42.8,29.65,NE,45,5.8,5.8,100,0.08,,-RA,0.62,VWS V14.01,2013-02-26 16:01:00,
2013-02-26 11:06:00,42.8,42.8,29.68,NE,45,9.0,9.0,100,0.08,,-RA,0.62,VWS V14.01,2013-02-26 16:06:00,
2013-02-26 11:11:00,43.0,43.0,29.68,NE,45,5.4,5.4,100,0.08,,-RA,0.62,VWS V14.01,2013-02-26 16:11:00,
2013-02-26 11:16:00,43.0,43.0,29.68,ENE,68,9.8,9.8,100,0.08,,-RA,0.62,VWS V14.01,2013-02-26 16:16:00,
2013-02-26 11:21:00,43.3,43.3,29.65,NE,45,4.3,4.3,100,0.08,,-RA,0.62,VWS V14.01,2013-02-26 16:21:00,
2013-02-26 11:26:00,43.5,43.5,29.65,ENE,68,5.4,5.4,100,0.04,,-RA,0.62,VWS V14.01,2013-02-26 16:26:00,
2013-02-26 11:31:00,43.7,43.7,29.65,NE,45,7.2,7.2,100,0.04,,-RA,0.62,VWS V14.01,2013-02-26 16:31:00,
2013-02-26 11:36:00,44.1,44.1,29.62,East,90,4.0,4.0,100,0.04,,-RA,0.62,VWS V14.01,2013-02-26 16:36:00,
2013-02-26 11:41:00,44.4,44.4,29.62,ENE,68,7.6,7.6,100,0.04,,-RA,0.62,VWS V14.01,2013-02-26 16:41:00,
2013-02-26 11:46:00,44.6,44.6,29.62,NE,45,8.1,8.1,100,0.04,,-RA,0.62,VWS V14.01,2013-02-26 16:46:00,
2013-02-26 11:51:00,44.8,44.8,29.62,ENE,68,8.5,8.5,100,0.04,,-RA,0.62,VWS V14.01,2013-02-26 16:51:00,
2013-02-26 11:56:00,45.1,45.1,29.62,NE,45,4.9,4.9,100,0.04,,-RA,0.62,VWS V14.01,2013-02-26 16:56:00,
2013-02-26 12:01:00,45.5,45.5,29.62,East,90,3.8,3.8,100,0.00,,-RA,0.62,VWS V14.01,2013-02-26 17:01:00,
2013-02-26 12:06:00,45.7,45.7,29.62,NE,45,6.5,6.5,100,0.00,,-RA,0.62,VWS V14.01,2013-02-26 17:06:00,
2013-02-26 12:11:00,46.0,46.0,29.62,ENE,68,6.3,6.3,100,0.00,,-RA,0.62,VWS V14.01,2013-02-26 17:11:00,
2013-02-26 12:16:00,46.6,46.6,29.62,ENE,68,5.8,5.8,100,0.00,,-RA,0.62,VWS V14.01,2013-02-26 17:16:00,
2013-02-26 12:21:00,46.8,46.8,29.62,ENE,68,4.3,4.3,100,0.00,,-RA,0.62,VWS V14.01,2013-02-26 17:21:00,
2013-02-26 12:26:00,47.1,47.1,29.62,ENE,68,6.0,6.0,100,0.00,,-RA,0.62,VWS V14.01,2013-02-26 17:26:00,
2013-02-26 12:31:00,47.5,47.5,29.62,ENE,68,7.4,7.4,100,0.00,,OVC004,0.62,VWS V14.01,2013-02-26 17:31:00,
2013-02-26 12:36:00,47.8,47.8,29.56,ENE,68,6.5,6.5,100,0.00,,-RA,0.62,VWS V14.01,2013-02-26 17:36:00,
2013-02-26 12:41:00,48.2,48.2,29.56,East,90,9.6,9.6,100,0.00,,-RA,0.62,VWS V14.01,2013-02-26 17:41:00,
2013-02-26 12:46:00,48.7,48.7,29.56,ENE,68,6.0,6.0,100,0.00,,-RA,0.62,VWS V14.01,2013-02-26 17:46:00,
2013-02-26 12:51:00,49.3,49.3,29.56,ENE,68,7.4,7.4,100,0.00,,-RA,0.62,VWS V14.01,2013-02-26 17:51:00,
2013-02-26 12:56:00,49.6,49.6,29.56,East,90,10.3,10.3,100,0.00,,-RA,0.62,VWS V14.01,2013-02-26 17:56:00,
2013-02-26 13:01:00,50.2,50.2,29.56,East,90,8.7,8.7,100,0.00,,-RA,0.62,VWS V14.01,2013-02-26 18:01:00,
2013-02-26 13:06:00,50.5,50.5,29.53,ENE,68,7.6,7.6,100,0.00,,-RA,0.62,VWS V14.01,2013-02-26 18:06:00,
2013-02-26 13:11:00,51.1,51.1,29.53,East,90,8.5,8.5,100,0.00,,-RA,0.62,VWS V14.01,2013-02-26 18:11:00,
2013-02-26 13:16:00,51.8,51.8,29.53,ENE,68,7.4,7.4,100,0.00,,-RA,0.62,VWS V14.01,2013-02-26 18:16:00,
2013-02-26 13:21:00,52.5,52.5,29.50,ESE,112,9.0,9.0,100,0.00,,-RA,0.62,VWS V14.01,2013-02-26 18:21:00,
2013-02-26 13:26:00,52.9,52.9,29.50,East,90,5.8,5.8,100,0.00,,-RA,0.00,VWS V14.01,2013-02-26 18:26:00,
2013-02-26 13:32:00,53.4,53.4,29.50,ESE,112,12.3,12.3,100,0.00,,-RA,0.62,VWS V14.01,2013-02-26 18:32:00,
2013-02-26 13:37:00,54.0,54.0,29.50,East,90,5.6,5.6,100,0.00,,-RA,0.62,VWS V14.01,2013-02-26 18:37:00,
2013-02-26 13:42:00,54.3,54.3,29.50,ESE,112,6.5,6.5,100,0.00,,-RA,0.62,VWS V14.01,2013-02-26 18:42:00,
2013-02-26 13:47:00,54.7,54.7,29.50,SE,135,5.4,5.4,100,0.00,,-RA,0.62,VWS V14.01,2013-02-26 18:47:00,
2013-02-26 13:52:00,55.0,55.0,29.50,East,90,4.9,4.9,100,0.00,,-RA,0.62,VWS V14.01,2013-02-26 18:52:00,
2013-02-26 13:57:00,55.2,55.2,29.50,East,90,3.8,3.8,100,0.00,,-RA,0.62,VWS V14.01,2013-02-26 18:57:00,
2013-02-26 14:02:00,55.8,55.8,29.50,East,90,5.8,5.8,100,0.00,,-RA,0.62,VWS V14.01,2013-02-26 19:02:00,
2013-02-26 14:07:00,55.9,55.9,29.50,ESE,112,4.0,4.0,100,0.04,,-RA,0.66,VWS V14.01,2013-02-26 19:07:00,
2013-02-26 14:12:00,56.5,56.5,29.50,ESE,112,3.4,3.4,100,0.04,,-RA,0.66,VWS V14.01,2013-02-26 19:12:00,
2013-02-26 14:17:00,56.8,56.8,29.50,ESE,112,2.7,2.7,100,0.04,,-RA,0.66,VWS V14.01,2013-02-26 19:17:00,
2013-02-26 14:22:00,57.0,57.0,29.50,ESE,112,3.4,3.4,100,0.04,,-RA,0.66,VWS V14.01,2013-02-26 19:22:00,
2013-02-26 14:27:00,57.4,57.4,29.50,East,90,4.9,4.9,100,0.04,,-RA,0.66,VWS V14.01,2013-02-26 19:27:00,
2013-02-26 14:32:00,57.9,57.9,29.50,SW,225,2.5,2.5,100,0.04,,-RA,0.66,VWS V14.01,2013-02-26 19:32:00,
2013-02-26 14:37:00,58.1,58.1,29.50,SE,135,4.5,4.5,100,0.04,,-RA,0.66,VWS V14.01,2013-02-26 19:37:00,
2013-02-26 14:42:00,58.6,58.6,29.50,ESE,112,5.6,5.6,100,0.04,,-RA,0.66,VWS V14.01,2013-02-26 19:42:00,
2013-02-26 14:47:00,59.4,59.4,29.50,SE,135,2.9,2.9,100,0.04,,-RA,0.66,VWS V14.01,2013-02-26 19:47:00,
2013-02-26 14:52:00,60.3,60.3,29.47,ESE,112,6.0,6.0,100,0.04,,,0.66,VWS V14.01,2013-02-26 19:52:00,
2013-02-26 14:57:00,60.6,60.6,29.47,SE,135,4.3,4.3,100,0.04,,,0.66,VWS V14.01,2013-02-26 19:57:00,
2013-02-26 15:02:00,61.2,61.2,29.47,ESE,112,5.6,5.6,100,0.04,,,0.66,VWS V14.01,2013-02-26 20:02:00,
2013-02-26 15:07:00,61.9,61.9,29.50,ESE,112,4.0,4.0,100,0.00,,,0.66,VWS V14.01,2013-02-26 20:07:00,
2013-02-26 15:12:00,62.2,62.2,29.50,ESE,112,3.6,3.6,100,0.00,,,0.66,VWS V14.01,2013-02-26 20:12:00,
2013-02-26 15:17:00,63.0,63.0,29.50,SE,135,4.9,4.9,100,0.00,,,0.66,VWS V14.01,2013-02-26 20:17:00,
2013-02-26 15:22:00,63.1,63.1,29.50,SW,225,0.0,0.0,100,0.00,,,0.66,VWS V14.01,2013-02-26 20:22:00,
2013-02-26 15:27:00,63.3,63.3,29.50,SSE,158,2.2,2.2,100,0.00,,,0.66,VWS V14.01,2013-02-26 20:27:00,
2013-02-26 15:32:00,63.5,63.5,29.50,SSE,158,0.0,0.0,100,0.00,,,0.66,VWS V14.01,2013-02-26 20:32:00,
2013-02-26 15:37:00,63.7,63.7,29.50,SSW,202,2.5,2.5,100,0.00,,,0.66,VWS V14.01,2013-02-26 20:37:00,
2013-02-26 15:42:00,64.0,64.0,29.50,West,270,2.7,2.7,100,0.00,,,0.66,VWS V14.01,2013-02-26 20:42:00,
2013-02-26 15:47:00,63.9,63.9,29.50,WNW,292,3.1,3.1,100,0.00,,,0.66,VWS V14.01,2013-02-26 20:47:00,
2013-02-26 15:52:00,64.0,64.0,29.50,West,270,2.9,2.9,100,0.00,,,0.66,VWS V14.01,2013-02-26 20:52:00,
2013-02-26 15:57:00,64.2,64.2,29.50,West,270,2.7,2.7,100,0.00,,,0.66,VWS V14.01,2013-02-26 20:57:00,
2013-02-26 16:02:00,64.4,64.4,29.50,NW,315,0.0,0.0,100,0.00,,,0.66,VWS V14.01,2013-02-26 21:02:00,
2013-02-26 16:07:00,64.6,64.6,29.50,West,270,4.9,4.9,100,0.00,,,0.66,VWS V14.01,2013-02-26 21:07:00,
2013-02-26 16:12:00,64.4,64.4,29.50,WSW,248,4.7,4.7,100,0.00,,,0.66,VWS V14.01,2013-02-26 21:12:00,
2013-02-26 16:17:00,64.2,64.2,29.50,WNW,292,3.8,3.8,100,0.00,,,0.66,VWS V14.01,2013-02-26 21:17:00,
2013-02-26 16:22:00,63.5,63.5,29.47,West,270,5.6,5.6,100,0.00,,,0.66,VWS V14.01,2013-02-26 21:22:00,
2013-02-26 16:27:00,63.0,63.0,29.47,West,270,6.0,6.0,100,0.00,,,0.66,VWS V14.01,2013-02-26 21:27:00,
2013-02-26 16:32:00,62.6,62.6,29.47,WNW,292,2.9,2.9,100,0.00,,,0.66,VWS V14.01,2013-02-26 21:32:00,
2013-02-26 16:37:00,61.3,61.3,29.47,West,270,4.9,4.9,100,0.00,,,0.66,VWS V14.01,2013-02-26 21:37:00,
2013-02-26 16:42:00,60.8,60.8,29.47,West,270,4.9,4.9,100,0.00,,,0.66,VWS V14.01,2013-02-26 21:42:00,
2013-02-26 16:47:00,60.1,60.1,29.47,WNW,292,3.8,3.8,100,0.00,,,0.66,VWS V14.01,2013-02-26 21:47:00,
2013-02-26 16:52:00,58.6,58.6,29.47,West,270,4.3,4.3,100,0.00,,,0.66,VWS V14.01,2013-02-26 21:52:00,
2013-02-26 16:57:00,58.6,58.6,29.47,WNW,292,4.0,4.0,100,0.00,,,0.66,VWS V14.01,2013-02-26 21:57:00,
2013-02-26 17:02:00,58.1,58.1,29.47,West,270,2.9,2.9,100,0.00,,,0.66,VWS V14.01,2013-02-26 22:02:00,
2013-02-26 17:08:00,57.7,57.7,29.47,WNW,292,4.7,4.7,100,0.00,,,0.66,VWS V14.01,2013-02-26 22:08:00,
2013-02-26 17:13:00,57.6,57.6,29.47,West,270,2.9,2.9,100,0.00,,,0.66,VWS V14.01,2013-02-26 22:13:00,
2013-02-26 17:18:00,57.6,57.6,29.47,WNW,292,4.3,4.3,100,0.00,,,0.66,VWS V14.01,2013-02-26 22:18:00,
2013-02-26 17:23:00,57.6,57.6,29.50,West,270,4.5,4.5,100,0.00,,,0.66,VWS V14.01,2013-02-26 22:23:00,
2013-02-26 17:28:00,57.6,57.6,29.50,West,270,4.3,4.3,100,0.00,,,0.66,VWS V14.01,2013-02-26 22:28:00,
2013-02-26 17:33:00,57.6,57.6,29.50,WSW,248,4.0,4.0,100,0.00,,,0.66,VWS V14.01,2013-02-26 22:33:00,
2013-02-26 17:38:00,57.7,57.7,29.50,WSW,248,6.0,6.0,100,0.00,,,0.66,VWS V14.01,2013-02-26 22:38:00,
2013-02-26 17:43:00,57.9,57.9,29.50,West,270,5.4,5.4,100,0.00,,,0.66,VWS V14.01,2013-02-26 22:43:00,
2013-02-26 17:48:00,57.7,57.7,29.50,West,270,6.0,6.0,100,0.00,,,0.66,VWS V14.01,2013-02-26 22:48:00,
2013-02-26 17:53:00,57.7,57.2,29.50,WSW,248,1.6,1.6,98,0.00,,,0.66,VWS V14.01,2013-02-26 22:53:00,
2013-02-26 17:58:00,57.6,57.0,29.50,West,270,4.3,4.3,98,0.00,,,0.66,VWS V14.01,2013-02-26 22:58:00,
2013-02-26 18:03:00,57.4,56.8,29.50,West,270,2.9,2.9,98,0.00,,,0.66,VWS V14.01,2013-02-26 23:03:00,
2013-02-26 18:08:00,57.2,56.6,29.53,West,270,3.4,3.4,98,0.00,,,0.66,VWS V14.01,2013-02-26 23:08:00,
2013-02-26 18:13:00,57.0,56.5,29.53,West,270,6.0,6.0,98,0.00,,,0.66,VWS V14.01,2013-02-26 23:13:00,
2013-02-26 18:18:00,56.8,56.3,29.53,West,270,6.5,6.5,98,0.00,,,0.66,VWS V14.01,2013-02-26 23:18:00,
2013-02-26 18:23:00,56.7,56.1,29.53,West,270,4.9,4.9,98,0.00,,,0.66,VWS V14.01,2013-02-26 23:23:00,
2013-02-26 18:28:00,56.3,55.8,29.53,WSW,248,6.5,6.5,98,0.00,,,0.66,VWS V14.01,2013-02-26 23:28:00,
2013-02-26 18:33:00,55.9,55.1,29.53,WSW,248,4.0,4.0,97,0.00,,,0.66,VWS V14.01,2013-02-26 23:33:00,
2013-02-26 18:38:00,55.6,54.5,29.53,WNW,292,5.6,5.6,96,0.00,,,0.66,VWS V14.01,2013-02-26 23:38:00,
2013-02-26 18:43:00,55.2,54.1,29.53,West,270,7.8,7.8,96,0.00,,,0.66,VWS V14.01,2013-02-26 23:43:00,
2013-02-26 18:48:00,54.9,53.5,29.53,WSW,248,5.6,5.6,95,0.00,,,0.66,VWS V14.01,2013-02-26 23:48:00,
2013-02-26 18:54:00,54.5,52.8,29.53,WSW,248,5.8,5.8,94,0.00,,,0.66,VWS V14.01,2013-02-26 23:54:00,
2013-02-26 18:59:00,54.1,52.5,29.53,West,270,7.8,7.8,94,0.00,,,0.66,VWS V14.01,2013-02-26 23:59:00,
2013-02-26 19:04:00,53.8,51.8,29.53,WSW,248,7.6,7.6,93,0.00,,,0.66,VWS V14.01,2013-02-27 00:04:00,
2013-02-26 19:09:00,53.2,51.3,29.56,WNW,292,10.5,10.5,93,0.00,,,0.66,VWS V14.01,2013-02-27 00:09:00,
2013-02-26 19:14:00,52.5,50.6,29.56,WNW,292,5.4,5.4,93,0.00,,,0.66,VWS V14.01,2013-02-27 00:14:00,
2013-02-26 19:19:00,52.0,50.0,29.56,West,270,4.3,4.3,93,0.00,,,0.66,VWS V14.01,2013-02-27 00:19:00,
2013-02-26 19:24:00,51.6,49.7,29.56,WSW,248,6.3,6.3,93,0.00,,,0.66,VWS V14.01,2013-02-27 00:24:00,
2013-02-26 19:29:00,51.3,49.3,29.56,West,270,6.0,6.0,93,0.00,,,0.66,VWS V14.01,2013-02-27 00:29:00,
2013-02-26 19:34:00,51.1,49.1,29.56,WNW,292,3.1,3.1,93,0.00,,,0.66,VWS V14.01,2013-02-27 00:34:00,
2013-02-26 19:39:00,50.9,49.0,29.56,WNW,292,4.0,4.0,93,0.00,,,0.66,VWS V14.01,2013-02-27 00:39:00,
2013-02-26 19:44:00,50.5,48.6,29.56,West,270,7.6,7.6,93,0.00,,,0.66,VWS V14.01,2013-02-27 00:44:00,
2013-02-26 19:49:00,50.2,48.0,29.56,WSW,248,5.6,5.6,92,0.00,,,0.66,VWS V14.01,2013-02-27 00:49:00,
2013-02-26 19:54:00,50.0,47.8,29.56,WSW,248,5.4,5.4,92,0.00,,OVC004,0.66,VWS V14.01,2013-02-27 00:54:00,
2013-02-26 19:59:00,49.8,47.6,29.56,WSW,248,5.8,5.8,92,0.00,,OVC004,0.66,VWS V14.01,2013-02-27 00:59:00,
2013-02-26 20:04:00,49.3,47.3,29.56,WNW,292,4.7,4.7,93,0.00,,OVC004,0.66,VWS V14.01,2013-02-27 01:04:00,
2013-02-26 20:09:00,48.7,46.5,29.56,WNW,292,4.9,4.9,92,0.00,,OVC004,0.66,VWS V14.01,2013-02-27 01:09:00,
2013-02-26 20:14:00,48.2,45.7,29.56,WNW,292,3.4,3.4,91,0.00,,OVC004,0.66,VWS V14.01,2013-02-27 01:14:00,
2013-02-26 20:19:00,48.0,45.5,29.56,West,270,8.5,8.5,91,0.00,,OVC004,0.66,VWS V14.01,2013-02-27 01:19:00,
2013-02-26 20:24:00,48.0,45.5,29.56,West,270,5.8,5.8,91,0.00,,OVC004,0.66,VWS V14.01,2013-02-27 01:24:00,
2013-02-26 20:29:00,47.7,45.7,29.56,WSW,248,4.9,4.9,93,0.00,,OVC004,0.66,VWS V14.01,2013-02-27 01:29:00,
2013-02-26 20:34:00,47.5,45.6,29.56,West,270,6.0,6.0,93,0.00,,OVC004,0.66,VWS V14.01,2013-02-27 01:34:00,
2013-02-26 20:39:00,47.1,45.2,29.59,West,270,6.5,6.5,93,0.00,,OVC004,0.66,VWS V14.01,2013-02-27 01:39:00,
2013-02-26 20:44:00,46.9,44.7,29.59,West,270,9.2,9.2,92,0.00,,OVC004,0.66,VWS V14.01,2013-02-27 01:44:00,
2013-02-26 20:49:00,46.4,44.2,29.59,WNW,292,5.8,5.8,92,0.00,,OVC004,0.66,VWS V14.01,2013-02-27 01:49:00,
2013-02-26 20:54:00,46.2,44.0,29.59,WNW,292,5.6,5.6,92,0.00,,OVC004,0.66,VWS V14.01,2013-02-27 01:54:00,
2013-02-26 20:59:00,46.2,44.0,29.59,WSW,248,7.2,7.2,92,0.00,,OVC004,0.66,VWS V14.01,2013-02-27 01:59:00,
2013-02-26 21:04:00,46.0,44.1,29.59,WSW,248,5.6,5.6,93,0.00,,OVC004,0.66,VWS V14.01,2013-02-27 02:04:00,
2013-02-26 21:09:00,46.0,44.1,29.59,WSW,248,8.5,8.5,93,0.00,,OVC004,0.66,VWS V14.01,2013-02-27 02:09:00,
2013-02-26 21:14:00,46.0,44.4,29.59,WSW,248,7.2,7.2,94,0.00,,OVC004,0.66,VWS V14.01,2013-02-27 02:14:00,
2013-02-26 21:19:00,46.0,44.7,29.59,WNW,292,6.5,6.5,95,0.00,,OVC004,0.66,VWS V14.01,2013-02-27 02:19:00,
2013-02-26 21:24:00,46.0,44.7,29.59,West,270,5.4,5.4,95,0.00,,OVC004,0.66,VWS V14.01,2013-02-27 02:24:00,
2013-02-26 21:29:00,46.2,45.2,29.59,West,270,5.4,5.4,96,0.00,,OVC004,0.66,VWS V14.01,2013-02-27 02:29:00,
2013-02-26 21:34:00,46.2,45.2,29.59,WNW,292,3.6,3.6,96,0.00,,OVC004,0.66,VWS V14.01,2013-02-27 02:34:00,
2013-02-26 21:39:00,46.4,45.3,29.59,WSW,248,2.7,2.7,96,0.00,,,0.66,VWS V14.01,2013-02-27 02:39:00,
2013-02-26 21:44:00,46.4,45.6,29.59,West,270,3.6,3.6,97,0.00,,,0.66,VWS V14.01,2013-02-27 02:44:00,
2013-02-26 21:49:00,46.6,46.0,29.59,West,270,4.3,4.3,98,0.00,,,0.66,VWS V14.01,2013-02-27 02:49:00,
2013-02-26 21:54:00,46.8,46.2,29.59,WNW,292,4.3,4.3,98,0.00,,,0.66,VWS V14.01,2013-02-27 02:54:00,
2013-02-26 21:59:00,47.1,46.6,29.59,West,270,3.1,3.1,98,0.00,,,0.66,VWS V14.01,2013-02-27 02:59:00,
2013-02-26 22:04:00,47.3,46.8,29.59,WNW,292,5.4,5.4,98,0.00,,,0.66,VWS V14.01,2013-02-27 03:04:00,
2013-02-26 22:10:00,47.5,47.0,29.59,SSW,202,3.8,3.8,98,0.00,,,0.66,VWS V14.01,2013-02-27 03:10:00,
2013-02-26 22:15:00,47.7,47.1,29.59,SW,225,3.4,3.4,98,0.00,,,0.66,VWS V14.01,2013-02-27 03:15:00,
2013-02-26 22:20:00,47.7,47.1,29.59,WSW,248,5.6,5.6,98,0.00,,,0.66,VWS V14.01,2013-02-27 03:20:00,
2013-02-26 22:25:00,47.7,47.1,29.59,WSW,248,9.4,9.4,98,0.00,,,0.66,VWS V14.01,2013-02-27 03:25:00,
2013-02-26 22:30:00,47.8,47.3,29.59,WSW,248,5.4,5.4,98,0.00,,,0.66,VWS V14.01,2013-02-27 03:30:00,
2013-02-26 22:35:00,48.0,47.5,29.59,WSW,248,5.6,5.6,98,0.00,,,0.66,VWS V14.01,2013-02-27 03:35:00,
2013-02-26 22:40:00,48.0,47.5,29.59,WSW,248,3.6,3.6,98,0.00,,,0.66,VWS V14.01,2013-02-27 03:40:00,
2013-02-26 22:45:00,48.4,47.8,29.59,WSW,248,5.6,5.6,98,0.00,,,0.66,VWS V14.01,2013-02-27 03:45:00,
2013-02-26 22:50:00,48.4,47.8,29.62,WSW,248,3.6,3.6,98,0.00,,,0.66,VWS V14.01,2013-02-27 03:50:00,
2013-02-26 22:55:00,48.4,47.8,29.62,WSW,248,5.8,5.8,98,0.00,,,0.66,VWS V14.01,2013-02-27 03:55:00,
2013-02-26 23:00:00,48.6,48.0,29.62,WSW,248,4.9,4.9,98,0.00,,,0.66,VWS V14.01,2013-02-27 04:00:00,
2013-02-26 23:06:00,48.7,48.2,29.59,WSW,248,6.0,6.0,98,0.00,,,0.66,VWS V14.01,2013-02-27 04:06:00,
2013-02-26 23:11:00,48.9,48.4,29.59,WSW,248,5.4,5.4,98,0.00,,,0.66,VWS V14.01,2013-02-27 04:11:00,
2013-02-26 23:16:00,49.1,48.6,29.59,WSW,248,4.0,4.0,98,0.00,,,0.66,VWS V14.01,2013-02-27 04:16:00,
2013-02-26 23:21:00,48.9,48.4,29.59,West,270,4.3,4.3,98,0.00,,,0.66,VWS V14.01,2013-02-27 04:21:00,
2013-02-26 23:26:00,49.1,48.6,29.59,WSW,248,8.7,8.7,98,0.00,,,0.66,VWS V14.01,2013-02-27 04:26:00,
2013-02-26 23:31:00,49.1,48.6,29.59,SW,225,6.3,6.3,98,0.00,,,0.66,VWS V14.01,2013-02-27 04:31:00,
2013-02-26 23:36:00,49.1,48.6,29.59,WSW,248,12.5,12.5,98,0.00,,,0.66,VWS V14.01,2013-02-27 04:36:00,
2013-02-26 23:41:00,48.9,48.4,29.59,WSW,248,10.3,10.3,98,0.00,,,0.66,VWS V14.01,2013-02-27 04:41:00,
2013-02-26 23:46:00,48.9,48.4,29.59,SSW,202,4.9,4.9,98,0.00,,,0.66,VWS V14.01,2013-02-27 04:46:00,
2013-02-26 23:51:00,48.7,48.2,29.62,WSW,248,7.2,7.2,98,0.00,,,0.66,VWS V14.01,2013-02-27 04:51:00,
2013-02-26 23:57:00,48.6,48.0,29.62,WSW,248,4.3,4.3,98,0.00,,,0.66,VWS V14.01,2013-02-27 04:57:00,